Time;durP1;ratioP1;P1;durP2;ratioP2;P2;SDS_P1;SDS_P2;PMS_P1;PMS_P2;Temp;Humidity;BMP_temperature;BMP_pressure;BME280_temperature;BME280_humidity;BME280_pressure;Samples;Min_cycle;Max_cycle;Signal;HPM_P1;HPM_P2
2023/04/16 00:01:30;;;;;;;;;;;9.40;70.20;;;;;;5031211;28;19933;-77
2023/04/16 00:03:56;;;;;;;;;;;9.50;70.20;;;;;;5014878;28;20422;-78
2023/04/16 00:06:21;;;;;;;;;;;9.50;70.20;;;;;;5035106;28;19940;-77
2023/04/16 00:08:47;;;;;;;;;;;9.50;70.20;;;;;;5049823;28;19927;-78
2023/04/16 00:11:12;;;;;;;;;;;9.50;70.20;;;;;;5067184;28;19925;-78
2023/04/16 00:13:38;;;;;;;;;;;9.50;70.20;;;;;;5034889;28;19920;-78
2023/04/16 00:16:03;;;;;;;;;;;9.50;70.30;;;;;;5033538;28;20023;-77
2023/04/16 00:18:29;;;;;;;;;;;9.50;71.10;;;;;;5046689;28;19921;-77
2023/04/16 00:20:55;;;;;;;;;;;9.50;70.30;;;;;;5028454;28;19924;-79
2023/04/16 00:23:20;;;;;;;;;;;9.50;70.30;;;;;;5064923;28;19927;-78
2023/04/16 00:25:46;;;;;;;;;;;9.50;70.30;;;;;;5051401;28;20457;-78
2023/04/16 00:28:11;;;;;;;;;;;9.50;70.30;;;;;;5061669;28;19931;-78
2023/04/16 00:30:37;;;;;;;;;;;9.50;70.40;;;;;;5046678;28;20322;-78
2023/04/16 00:33:03;;;;;;;;;;;9.50;70.30;;;;;;5043412;28;19999;-77
2023/04/16 00:35:29;;;;;;;;;;;9.50;70.40;;;;;;5049957;28;19985;-78
2023/04/16 00:37:54;;;;;;;;;;;9.50;70.30;;;;;;5030893;28;21457;-77
2023/04/16 00:40:20;;;;;;;;;;;9.50;70.40;;;;;;5034279;28;20634;-77
2023/04/16 00:42:45;;;;;;;;;;;9.50;70.40;;;;;;5046728;28;20011;-77
2023/04/16 00:45:11;;;;;;;;;;;9.50;70.40;;;;;;5058913;28;20455;-78
2023/04/16 00:47:37;;;;;;;;;;;9.50;70.40;;;;;;5048079;28;19921;-76
2023/04/16 00:50:03;;;;;;;;;;;9.50;70.40;;;;;;5029381;28;19925;-79
2023/04/16 00:52:28;;;;;;;;;;;9.50;70.40;;;;;;5043899;28;19970;-77
2023/04/16 00:54:54;;;;;;;;;;;9.50;70.40;;;;;;5031481;28;19924;-77
2023/04/16 00:57:22;;;;;;;;;;;9.50;70.40;;;;;;5033099;28;19921;-78
2023/04/16 00:59:48;;;;;;;;;;;9.50;70.40;;;;;;5059955;28;19921;-78
2023/04/16 01:02:13;;;;;;;;;;;9.50;70.40;;;;;;5063447;28;19924;-78
2023/04/16 01:04:39;;;;;;;;;;;9.50;70.40;;;;;;5047987;28;20449;-79
2023/04/16 01:07:04;;;;;;;;;;;9.50;70.40;;;;;;5047120;28;19998;-77
2023/04/16 01:09:30;;;;;;;;;;;9.50;70.50;;;;;;5047553;28;20567;-77
2023/04/16 01:11:55;;;;;;;;;;;9.50;70.40;;;;;;5052099;28;19960;-78
2023/04/16 01:14:21;;;;;;;;;;;9.50;71.30;;;;;;5017549;28;19920;-78
2023/04/16 01:16:46;;;;;;;;;;;9.50;70.50;;;;;;5062418;28;20272;-78
2023/04/16 01:19:11;;;;;;;;;;;9.50;70.50;;;;;;5061292;28;19956;-77
2023/04/16 01:21:37;;;;;;;;;;;9.50;70.50;;;;;;5048600;28;19926;-78
2023/04/16 01:24:03;;;;;;;;;;;9.50;70.50;;;;;;5048225;28;19921;-78
2023/04/16 01:26:29;;;;;;;;;;;9.50;70.50;;;;;;5033955;28;20387;-77
2023/04/16 01:28:54;;;;;;;;;;;9.50;70.60;;;;;;5031885;28;20005;-77
2023/04/16 01:31:20;;;;;;;;;;;9.50;70.50;;;;;;5061479;28;20398;-78
2023/04/16 01:33:45;;;;;;;;;;;9.60;70.70;;;;;;5063980;28;19924;-76
2023/04/16 01:36:10;;;;;;;;;;;9.50;70.60;;;;;;5066996;28;19925;-78
2023/04/16 01:38:36;;;;;;;;;;;9.50;70.60;;;;;;5049569;28;20294;-79
2023/04/16 01:41:01;;;;;;;;;;;9.60;70.60;;;;;;5036368;28;19924;-78
2023/04/16 01:43:27;;;;;;;;;;;9.50;70.60;;;;;;5048203;28;19927;-77
2023/04/16 01:45:58;;;;;;;;;;;9.50;70.60;;;;;;5048646;28;19978;-79
2023/04/16 01:48:24;;;;;;;;;;;9.60;70.70;;;;;;5050653;28;19916;-77
2023/04/16 01:50:49;;;;;;;;;;;9.50;70.60;;;;;;5030947;28;19956;-77
2023/04/16 01:53:15;;;;;;;;;;;9.50;70.60;;;;;;5052229;28;20016;-78
2023/04/16 01:55:40;;;;;;;;;;;9.50;70.70;;;;;;5048715;28;20594;-77
2023/04/16 01:58:09;;;;;;;;;;;9.60;70.70;;;;;;5059855;28;20310;-77
2023/04/16 02:00:34;;;;;;;;;;;9.60;70.70;;;;;;5046832;28;19927;-77
2023/04/16 02:03:00;;;;;;;;;;;9.60;70.70;;;;;;5044957;28;19921;-78
2023/04/16 02:05:25;;;;;;;;;;;9.50;70.60;;;;;;5034048;28;19971;-78
2023/04/16 02:07:51;;;;;;;;;;;9.50;70.70;;;;;;5062254;28;20314;-78
2023/04/16 02:10:16;;;;;;;;;;;9.50;70.70;;;;;;5035235;28;19921;-78
2023/04/16 02:12:42;;;;;;;;;;;9.50;70.70;;;;;;5050530;28;19956;-77
2023/04/16 02:15:07;;;;;;;;;;;9.60;70.80;;;;;;5054862;28;19944;-78
2023/04/16 02:17:33;;;;;;;;;;;9.60;70.80;;;;;;5038070;28;19939;-78
2023/04/16 02:19:58;;;;;;;;;;;9.50;70.70;;;;;;5053685;28;19920;-76
2023/04/16 02:22:24;;;;;;;;;;;9.50;70.80;;;;;;5020054;28;20731;-78
2023/04/16 02:24:50;;;;;;;;;;;9.60;70.80;;;;;;5066549;28;19971;-78
2023/04/16 02:27:15;;;;;;;;;;;9.50;70.70;;;;;;5036386;28;19927;-78
2023/04/16 02:29:41;;;;;;;;;;;9.50;70.80;;;;;;5056901;28;19920;-76
2023/04/16 02:32:06;;;;;;;;;;;9.60;70.80;;;;;;5068197;28;19936;-78
2023/04/16 02:34:33;;;;;;;;;;;9.60;70.80;;;;;;5038563;28;19927;-78
2023/04/16 02:36:59;;;;;;;;;;;9.60;70.80;;;;;;5065386;28;20386;-78
2023/04/16 02:39:24;;;;;;;;;;;9.60;70.80;;;;;;5052476;28;19928;-77
2023/04/16 02:41:50;;;;;;;;;;;9.60;70.80;;;;;;5065240;28;19920;-77
2023/04/16 02:44:15;;;;;;;;;;;9.60;70.80;;;;;;5036355;28;19927;-77
2023/04/16 02:46:41;;;;;;;;;;;9.60;70.80;;;;;;5053577;28;19924;-79
2023/04/16 02:49:06;;;;;;;;;;;9.60;70.80;;;;;;5065630;28;20432;-78
2023/04/16 02:51:32;;;;;;;;;;;9.60;70.80;;;;;;5021829;28;20018;-78
2023/04/16 02:53:57;;;;;;;;;;;9.60;70.80;;;;;;5055515;28;19921;-77
2023/04/16 02:56:22;;;;;;;;;;;9.60;70.90;;;;;;5056214;28;19920;-78
2023/04/16 02:58:48;;;;;;;;;;;9.60;70.90;;;;;;5051473;28;21352;-77
2023/04/16 03:01:13;;;;;;;;;;;9.60;70.90;;;;;;5065858;28;19990;-76
2023/04/16 03:03:39;;;;;;;;;;;9.60;70.90;;;;;;5051033;28;19971;-78
2023/04/16 03:06:04;;;;;;;;;;;9.60;70.90;;;;;;5019720;28;19928;-78
2023/04/16 03:08:30;;;;;;;;;;;9.60;71.00;;;;;;5053104;28;20571;-78
2023/04/16 03:10:56;;;;;;;;;;;9.60;70.90;;;;;;5034349;28;19920;-78
2023/04/16 03:13:21;;;;;;;;;;;9.60;70.90;;;;;;5035654;28;19929;-78
2023/04/16 03:15:49;;;;;;;;;;;9.70;71.00;;;;;;5035136;28;20405;-78
2023/04/16 03:18:15;;;;;;;;;;;9.60;70.90;;;;;;5050101;28;19926;-78
2023/04/16 03:20:40;;;;;;;;;;;9.60;71.00;;;;;;5030039;28;20449;-79
2023/04/16 03:23:06;;;;;;;;;;;9.60;70.90;;;;;;5052533;28;20010;-77
2023/04/16 03:25:31;;;;;;;;;;;9.60;70.90;;;;;;5063966;28;19925;-78
2023/04/16 03:27:57;;;;;;;;;;;9.60;71.00;;;;;;5068210;28;20322;-78
2023/04/16 03:30:22;;;;;;;;;;;9.60;71.00;;;;;;5050993;28;19920;-77
2023/04/16 03:32:48;;;;;;;;;;;9.60;71.00;;;;;;5033550;28;19928;-77
2023/04/16 03:35:13;;;;;;;;;;;9.70;71.10;;;;;;5051619;28;19920;-78
2023/04/16 03:37:39;;;;;;;;;;;9.70;71.10;;;;;;5066013;28;20001;-78
2023/04/16 03:40:05;;;;;;;;;;;9.60;71.00;;;;;;5021219;28;19980;-78
2023/04/16 03:42:31;;;;;;;;;;;9.60;71.00;;;;;;5021430;28;19927;-78
2023/04/16 03:44:56;;;;;;;;;;;9.60;71.00;;;;;;5048631;28;20387;-79
2023/04/16 03:47:22;;;;;;;;;;;9.60;71.10;;;;;;5065439;28;19939;-78
2023/04/16 03:49:47;;;;;;;;;;;9.60;71.10;;;;;;5064780;28;22493;-78
2023/04/16 03:52:13;;;;;;;;;;;9.60;71.20;;;;;;5064649;28;19977;-78
2023/04/16 03:54:38;;;;;;;;;;;9.60;71.10;;;;;;5046181;28;19916;-78
2023/04/16 03:57:04;;;;;;;;;;;9.60;71.10;;;;;;5038046;28;19927;-77
2023/04/16 03:59:29;;;;;;;;;;;9.60;71.20;;;;;;5032349;28;19957;-77
2023/04/16 04:01:55;;;;;;;;;;;9.60;71.10;;;;;;5046722;28;19925;-79
2023/04/16 04:04:20;;;;;;;;;;;9.60;71.10;;;;;;5032198;28;19927;-77
2023/04/16 04:06:46;;;;;;;;;;;9.60;71.20;;;;;;5045769;28;20394;-78
2023/04/16 04:09:11;;;;;;;;;;;9.60;71.10;;;;;;5047084;28;19927;-78
2023/04/16 04:11:37;;;;;;;;;;;9.60;71.10;;;;;;5032276;28;19916;-78
2023/04/16 04:14:04;;;;;;;;;;;9.60;71.20;;;;;;5066599;28;19985;-77
2023/04/16 04:16:30;;;;;;;;;;;9.60;71.20;;;;;;5048000;28;20425;-78
2023/04/16 04:18:55;;;;;;;;;;;9.60;71.20;;;;;;5052665;28;20476;-78
2023/04/16 04:21:21;;;;;;;;;;;9.60;71.20;;;;;;5034816;28;19920;-78
2023/04/16 04:23:46;;;;;;;;;;;9.60;71.20;;;;;;5062450;28;20016;-76
2023/04/16 04:26:12;;;;;;;;;;;9.60;71.20;;;;;;5048670;28;19994;-78
2023/04/16 04:28:37;;;;;;;;;;;9.60;71.20;;;;;;5054815;28;19967;-76
2023/04/16 04:31:03;;;;;;;;;;;9.60;71.30;;;;;;5065689;28;20337;-77
2023/04/16 04:33:28;;;;;;;;;;;9.60;71.30;;;;;;5047504;28;20032;-76
2023/04/16 04:35:54;;;;;;;;;;;9.50;71.20;;;;;;5037033;28;19924;-77
2023/04/16 04:38:21;;;;;;;;;;;9.50;71.20;;;;;;5066414;28;19927;-78
2023/04/16 04:40:46;;;;;;;;;;;9.50;71.20;;;;;;5066073;28;19985;-78
2023/04/16 04:43:12;;;;;;;;;;;9.60;71.30;;;;;;5050420;28;20016;-76
2023/04/16 04:45:37;;;;;;;;;;;9.60;71.30;;;;;;5051836;28;19927;-79
2023/04/16 04:48:03;;;;;;;;;;;9.60;71.30;;;;;;5039758;28;19927;-78
2023/04/16 04:50:29;;;;;;;;;;;9.50;71.30;;;;;;5034071;28;20444;-78
2023/04/16 04:52:54;;;;;;;;;;;9.50;71.30;;;;;;5037498;28;19928;-79
2023/04/16 04:55:20;;;;;;;;;;;9.50;71.30;;;;;;5064331;28;19920;-76
2023/04/16 04:57:45;;;;;;;;;;;9.60;71.40;;;;;;5032552;28;19967;-78
2023/04/16 05:00:11;;;;;;;;;;;9.50;71.30;;;;;;5033139;28;20405;-78
2023/04/16 05:02:37;;;;;;;;;;;9.60;71.40;;;;;;5052400;28;19920;-78
2023/04/16 05:05:03;;;;;;;;;;;9.50;71.30;;;;;;5047531;28;19920;-78
2023/04/16 05:07:28;;;;;;;;;;;9.50;71.30;;;;;;5048168;28;20417;-77
2023/04/16 05:09:54;;;;;;;;;;;9.50;71.30;;;;;;5017045;28;19924;-77
2023/04/16 05:12:19;;;;;;;;;;;9.60;71.40;;;;;;5037899;28;19928;-78
2023/04/16 05:14:45;;;;;;;;;;;9.50;71.30;;;;;;5046225;28;20015;-76
2023/04/16 05:17:10;;;;;;;;;;;9.60;71.40;;;;;;5049568;28;19927;-78
2023/04/16 05:19:36;;;;;;;;;;;9.60;71.50;;;;;;5049584;28;20357;-78
2023/04/16 05:22:01;;;;;;;;;;;9.50;71.40;;;;;;5034520;28;20535;-78
2023/04/16 05:24:27;;;;;;;;;;;9.50;71.40;;;;;;5048982;28;19921;-77
2023/04/16 05:26:52;;;;;;;;;;;9.50;71.40;;;;;;5061778;28;20063;-78
2023/04/16 05:29:18;;;;;;;;;;;9.50;71.40;;;;;;5031783;28;19921;-78
2023/04/16 05:31:43;;;;;;;;;;;9.60;71.50;;;;;;5062216;28;20371;-79
2023/04/16 05:34:09;;;;;;;;;;;9.60;71.50;;;;;;5061086;28;20005;-79
2023/04/16 05:36:34;;;;;;;;;;;9.60;71.50;;;;;;5030141;28;19924;-77
2023/04/16 05:39:00;;;;;;;;;;;9.50;71.40;;;;;;5051375;28;20422;-79
2023/04/16 05:41:25;;;;;;;;;;;9.60;71.50;;;;;;5063161;28;19920;-78
2023/04/16 05:43:50;;;;;;;;;;;9.50;71.40;;;;;;5039372;28;20015;-79
2023/04/16 05:46:16;;;;;;;;;;;9.50;71.40;;;;;;5056283;28;19921;-78
2023/04/16 05:48:41;;;;;;;;;;;9.60;71.50;;;;;;5054979;28;20601;-78
2023/04/16 05:51:07;;;;;;;;;;;9.60;71.50;;;;;;5051145;28;19931;-79
2023/04/16 05:53:32;;;;;;;;;;;9.60;71.50;;;;;;5066053;28;19928;-78
2023/04/16 05:55:58;;;;;;;;;;;9.60;71.60;;;;;;5023948;28;19979;-78
2023/04/16 05:58:23;;;;;;;;;;;9.60;71.50;;;;;;5040611;28;19934;-79
2023/04/16 06:00:49;;;;;;;;;;;9.60;71.50;;;;;;5053462;28;19952;-77
2023/04/16 06:03:14;;;;;;;;;;;9.60;71.60;;;;;;5051977;28;19917;-79
2023/04/16 06:05:40;;;;;;;;;;;9.60;71.50;;;;;;5052605;28;20007;-79
2023/04/16 06:08:05;;;;;;;;;;;9.60;71.50;;;;;;5037427;28;19946;-79
2023/04/16 06:10:31;;;;;;;;;;;9.60;71.50;;;;;;5056371;28;19924;-77
2023/04/16 06:12:56;;;;;;;;;;;9.70;71.60;;;;;;5056588;28;19931;-78
2023/04/16 06:15:22;;;;;;;;;;;9.60;71.50;;;;;;5068941;28;19921;-79
2023/04/16 06:17:48;;;;;;;;;;;9.70;71.50;;;;;;5067815;28;20015;-77
2023/04/16 06:20:13;;;;;;;;;;;9.70;71.60;;;;;;5053709;28;19920;-78
2023/04/16 06:22:39;;;;;;;;;;;9.70;71.50;;;;;;5037504;28;19920;-78
2023/04/16 06:25:04;;;;;;;;;;;9.70;71.50;;;;;;5047954;28;20375;-79
2023/04/16 06:27:30;;;;;;;;;;;9.80;71.50;;;;;;5065046;28;19963;-78
2023/04/16 06:29:55;;;;;;;;;;;9.80;71.60;;;;;;5040319;28;20003;-78
2023/04/16 06:32:21;;;;;;;;;;;9.80;71.50;;;;;;5054537;28;19943;-77
2023/04/16 06:34:46;;;;;;;;;;;9.80;71.50;;;;;;5069570;28;19977;-78
2023/04/16 06:37:12;;;;;;;;;;;9.80;71.50;;;;;;5049157;28;19991;-78
2023/04/16 06:39:37;;;;;;;;;;;9.80;71.50;;;;;;5029010;28;20494;-78
2023/04/16 06:42:03;;;;;;;;;;;9.80;71.50;;;;;;5046671;28;19975;-75
2023/04/16 06:44:28;;;;;;;;;;;9.90;71.50;;;;;;5030388;28;20556;-78
2023/04/16 06:46:54;;;;;;;;;;;9.90;71.50;;;;;;5030227;28;20025;-77
2023/04/16 06:49:19;;;;;;;;;;;9.90;71.50;;;;;;5030451;28;19925;-78
2023/04/16 06:51:45;;;;;;;;;;;9.90;71.50;;;;;;5046947;28;19928;-78
2023/04/16 06:54:10;;;;;;;;;;;9.90;71.40;;;;;;5046698;28;19921;-78
2023/04/16 06:56:36;;;;;;;;;;;9.90;71.40;;;;;;5027140;28;20383;-78
2023/04/16 06:59:02;;;;;;;;;;;9.90;71.40;;;;;;5030219;28;20058;-79
2023/04/16 07:01:29;;;;;;;;;;;10.00;71.50;;;;;;5032501;28;20003;-78
2023/04/16 07:03:55;;;;;;;;;;;10.00;71.50;;;;;;5031573;28;19925;-78
2023/04/16 07:06:21;;;;;;;;;;;10.00;71.50;;;;;;5046570;28;20288;-79
2023/04/16 07:08:46;;;;;;;;;;;10.00;71.50;;;;;;5034391;28;19921;-78
2023/04/16 07:11:12;;;;;;;;;;;10.10;71.50;;;;;;5027489;28;19924;-79
2023/04/16 07:13:37;;;;;;;;;;;10.10;71.50;;;;;;5031359;28;19990;-78
2023/04/16 07:16:03;;;;;;;;;;;10.10;71.40;;;;;;5031176;28;19917;-78
2023/04/16 07:18:28;;;;;;;;;;;10.20;71.50;;;;;;5030952;28;19927;-79
2023/04/16 07:20:54;;;;;;;;;;;10.20;71.50;;;;;;5033862;28;19932;-78
2023/04/16 07:23:19;;;;;;;;;;;10.20;71.40;;;;;;5043325;28;19928;-79
2023/04/16 07:25:45;;;;;;;;;;;10.20;71.40;;;;;;5044418;28;19928;-79
2023/04/16 07:28:10;;;;;;;;;;;10.30;71.40;;;;;;5029945;28;20051;-78
2023/04/16 07:30:36;;;;;;;;;;;10.30;71.40;;;;;;5029889;28;19925;-78
2023/04/16 07:33:01;;;;;;;;;;;10.30;71.40;;;;;;5031626;28;19925;-78
2023/04/16 07:35:27;;;;;;;;;;;10.30;71.40;;;;;;5047754;28;19921;-78
2023/04/16 07:37:52;;;;;;;;;;;10.30;71.40;;;;;;5031613;28;20478;-79
2023/04/16 07:40:18;;;;;;;;;;;10.30;71.30;;;;;;5048809;28;20015;-78
2023/04/16 07:42:43;;;;;;;;;;;10.30;71.30;;;;;;5066030;28;19920;-79
2023/04/16 07:45:09;;;;;;;;;;;10.30;71.30;;;;;;5056445;28;20335;-79
2023/04/16 07:47:34;;;;;;;;;;;10.30;71.30;;;;;;5048437;28;19935;-77
2023/04/16 07:50:00;;;;;;;;;;;10.40;71.40;;;;;;5034649;28;19925;-78
2023/04/16 07:52:25;;;;;;;;;;;10.40;71.40;;;;;;5052109;28;19929;-78
2023/04/16 07:54:51;;;;;;;;;;;10.40;71.40;;;;;;5039165;28;19960;-79
2023/04/16 07:57:16;;;;;;;;;;;10.40;71.40;;;;;;5033645;28;19951;-78
2023/04/16 07:59:42;;;;;;;;;;;10.40;71.50;;;;;;5019753;28;20019;-78
2023/04/16 08:02:08;;;;;;;;;;;10.40;71.40;;;;;;5067982;28;21409;-79
2023/04/16 08:04:33;;;;;;;;;;;10.40;71.40;;;;;;5064160;28;20007;-79
2023/04/16 08:06:59;;;;;;;;;;;10.40;71.40;;;;;;5033382;28;19955;-78
2023/04/16 08:09:25;;;;;;;;;;;10.40;71.40;;;;;;5031704;28;21694;-79
2023/04/16 08:11:50;;;;;;;;;;;10.50;71.40;;;;;;5048695;28;19925;-78
2023/04/16 08:14:16;;;;;;;;;;;10.40;71.30;;;;;;5034428;28;19971;-80
2023/04/16 08:16:41;;;;;;;;;;;10.50;71.30;;;;;;5062480;28;19921;-78
2023/04/16 08:19:07;;;;;;;;;;;10.50;71.30;;;;;;5064357;28;19927;-79
2023/04/16 08:21:32;;;;;;;;;;;10.50;71.30;;;;;;5069221;28;19920;-79
2023/04/16 08:23:58;;;;;;;;;;;10.60;71.40;;;;;;5050157;28;19920;-78
2023/04/16 08:26:23;;;;;;;;;;;10.60;71.30;;;;;;5048671;28;19925;-79
2023/04/16 08:28:49;;;;;;;;;;;10.60;71.30;;;;;;5048827;28;19998;-76
2023/04/16 08:31:14;;;;;;;;;;;10.60;71.30;;;;;;5039067;28;20450;-79
2023/04/16 08:33:40;;;;;;;;;;;10.70;71.30;;;;;;5051921;28;20621;-79
2023/04/16 08:36:05;;;;;;;;;;;10.70;71.30;;;;;;5037186;28;19928;-76
2023/04/16 08:38:30;;;;;;;;;;;10.80;71.30;;;;;;5051472;28;19924;-79
2023/04/16 08:40:57;;;;;;;;;;;10.80;71.30;;;;;;5047410;28;20241;-78
2023/04/16 08:43:22;;;;;;;;;;;10.80;71.30;;;;;;5052126;28;19924;-79
2023/04/16 08:45:48;;;;;;;;;;;10.80;71.20;;;;;;5033828;28;19921;-78
2023/04/16 08:48:13;;;;;;;;;;;10.90;71.20;;;;;;5061733;28;19920;-78
2023/04/16 08:50:39;;;;;;;;;;;10.90;71.20;;;;;;5065690;28;19921;-79
2023/04/16 08:53:07;;;;;;;;;;;11.00;71.20;;;;;;5035667;28;19932;-79
2023/04/16 08:55:39;;;;;;;;;;;11.00;71.20;;;;;;5040617;28;19932;-79
2023/04/16 08:58:07;;;;;;;;;;;11.10;71.10;;;;;;5034368;28;19925;-79
2023/04/16 09:00:32;;;;;;;;;;;11.10;71.10;;;;;;5048897;28;19931;-78
2023/04/16 09:02:58;;;;;;;;;;;11.10;71.00;;;;;;5067395;28;19920;-78
2023/04/16 09:05:25;;;;;;;;;;;11.20;71.10;;;;;;5051708;28;19921;-78
2023/04/16 09:07:51;;;;;;;;;;;11.20;71.00;;;;;;5047813;28;20493;-79
2023/04/16 09:10:16;;;;;;;;;;;11.20;71.00;;;;;;5021096;28;20012;-78
2023/04/16 09:12:41;;;;;;;;;;;11.30;71.10;;;;;;5017651;28;19929;-79
2023/04/16 09:15:08;;;;;;;;;;;11.30;71.00;;;;;;5062727;28;19974;-78
2023/04/16 09:17:34;;;;;;;;;;;11.30;71.00;;;;;;5046696;28;20019;-79
2023/04/16 09:20:00;;;;;;;;;;;11.30;71.00;;;;;;5048404;28;19927;-79
2023/04/16 09:22:25;;;;;;;;;;;11.30;70.90;;;;;;5051342;28;19959;-77
2023/04/16 09:24:50;;;;;;;;;;;11.40;70.90;;;;;;5063199;28;20011;-78
2023/04/16 09:27:16;;;;;;;;;;;11.40;70.90;;;;;;5047950;28;19924;-78
2023/04/16 09:29:41;;;;;;;;;;;11.40;70.90;;;;;;5033575;28;19931;-78
2023/04/16 09:32:08;;;;;;;;;;;11.50;70.90;;;;;;5062407;28;19924;-78
2023/04/16 09:34:33;;;;;;;;;;;11.50;70.90;;;;;;5062962;28;20298;-77
2023/04/16 09:37:15;;;;;;;;;;;11.60;70.90;;;;;;5049091;28;19920;-79
2023/04/16 09:39:43;;;;;;;;;;;11.60;70.80;;;;;;5030158;28;19932;-77
2023/04/16 09:42:09;;;;;;;;;;;11.70;70.90;;;;;;5050478;28;19929;-79
2023/04/16 09:44:38;;;;;;;;;;;11.70;70.80;;;;;;5034967;28;19954;-78
2023/04/16 09:47:06;;;;;;;;;;;11.80;70.70;;;;;;5047308;28;19921;-79
2023/04/16 09:49:39;;;;;;;;;;;11.90;70.80;;;;;;5049253;28;19931;-78
2023/04/16 09:52:08;;;;;;;;;;;11.90;71.20;;;;;;5047939;28;19924;-79
2023/04/16 09:54:33;;;;;;;;;;;11.90;70.60;;;;;;5061897;28;19924;-79
2023/04/16 09:56:59;;;;;;;;;;;12.00;70.50;;;;;;5063294;28;19935;-78
2023/04/16 09:59:25;;;;;;;;;;;12.10;70.60;;;;;;5059675;28;19927;-77
2023/04/16 10:01:52;;;;;;;;;;;12.10;70.50;;;;;;5032796;28;19958;-78
2023/04/16 10:04:17;;;;;;;;;;;12.10;70.50;;;;;;5052675;28;19921;-79
2023/04/16 10:06:43;;;;;;;;;;;12.20;70.50;;;;;;5048087;28;19943;-79
2023/04/16 10:09:09;;;;;;;;;;;12.10;70.40;;;;;;5044724;28;20586;-79
2023/04/16 10:11:35;;;;;;;;;;;12.20;71.30;;;;;;5064154;28;19931;-78
2023/04/16 10:14:00;;;;;;;;;;;12.20;70.40;;;;;;5030664;28;19920;-79
2023/04/16 10:16:26;;;;;;;;;;;12.20;70.40;;;;;;5030773;28;19920;-79
2023/04/16 10:18:51;;;;;;;;;;;12.20;71.20;;;;;;5033271;28;19963;-78
2023/04/16 10:21:17;;;;;;;;;;;12.20;70.40;;;;;;5032006;28;19928;-78
2023/04/16 10:23:42;;;;;;;;;;;12.20;70.40;;;;;;5061430;28;20271;-78
2023/04/16 10:26:08;;;;;;;;;;;12.20;70.40;;;;;;5044561;28;19979;-79
2023/04/16 10:28:36;;;;;;;;;;;12.30;70.40;;;;;;5045216;28;19991;-77
2023/04/16 10:31:06;;;;;;;;;;;12.30;70.40;;;;;;5031878;28;19930;-79
2023/04/16 10:33:32;;;;;;;;;;;12.30;70.40;;;;;;5049039;28;19998;-79
2023/04/16 10:36:07;;;;;;;;;;;12.30;70.50;;;;;;5035655;28;19924;-77
2023/04/16 10:38:34;;;;;;;;;;;12.30;70.40;;;;;;5051475;28;19948;-79
2023/04/16 10:41:01;;;;;;;;;;;12.30;71.20;;;;;;5051349;28;19921;-79
2023/04/16 10:43:27;;;;;;;;;;;12.30;70.40;;;;;;5068099;28;19927;-77
2023/04/16 10:45:52;;;;;;;;;;;12.40;70.40;;;;;;5039214;28;19985;-79
2023/04/16 10:48:17;;;;;;;;;;;12.40;70.40;;;;;;5052452;28;19920;-78
2023/04/16 10:50:52;;;;;;;;;;;12.40;70.30;;;;;;5051486;28;19932;-77
2023/04/16 10:53:19;;;;;;;;;;;12.40;70.30;;;;;;5068789;28;19929;-79
2023/04/16 10:56:06;;;;;;;;;;;12.40;70.30;;;;;;5053891;28;19920;-78
2023/04/16 10:58:33;;;;;;;;;;;12.40;70.40;;;;;;5067771;28;19924;-77
2023/04/16 11:01:00;;;;;;;;;;;12.50;70.40;;;;;;5031564;28;20398;-78
2023/04/16 11:03:29;;;;;;;;;;;12.40;70.40;;;;;;5065638;28;19929;-78
2023/04/16 11:06:01;;;;;;;;;;;12.40;70.40;;;;;;5063722;28;19928;-78
2023/04/16 11:08:26;;;;;;;;;;;12.40;70.30;;;;;;5050065;28;19971;-78
2023/04/16 11:10:52;;;;;;;;;;;12.40;70.40;;;;;;5047861;28;20181;-78
2023/04/16 11:13:17;;;;;;;;;;;12.40;70.30;;;;;;5044916;28;19932;-79
2023/04/16 11:15:43;;;;;;;;;;;12.50;70.40;;;;;;5029678;28;19928;-78
2023/04/16 11:18:08;;;;;;;;;;;12.50;70.40;;;;;;5048754;28;20731;-78
2023/04/16 11:20:34;;;;;;;;;;;12.50;70.40;;;;;;5046555;28;20002;-79
2023/04/16 11:22:59;;;;;;;;;;;12.60;70.50;;;;;;5036632;28;20548;-79
2023/04/16 11:25:28;;;;;;;;;;;12.60;70.30;;;;;;5034633;28;20374;-77
2023/04/16 11:27:54;;;;;;;;;;;12.60;70.30;;;;;;5061903;28;20334;-78
2023/04/16 11:30:35;;;;;;;;;;;12.70;70.30;;;;;;5044640;28;19917;-78
2023/04/16 11:33:01;;;;;;;;;;;12.80;70.40;;;;;;5032647;28;19997;-78
2023/04/16 11:35:26;;;;;;;;;;;12.80;70.20;;;;;;5033688;28;19925;-78
2023/04/16 11:37:54;;;;;;;;;;;12.90;70.20;;;;;;5049458;28;19919;-79
2023/04/16 11:40:20;;;;;;;;;;;12.90;70.20;;;;;;5036957;28;19928;-78
2023/04/16 11:42:45;;;;;;;;;;;13.00;70.10;;;;;;5050355;28;19931;-78
2023/04/16 11:45:11;;;;;;;;;;;13.10;70.10;;;;;;5052499;28;20285;-78
2023/04/16 11:47:45;;;;;;;;;;;13.10;69.90;;;;;;5063785;28;20021;-79
2023/04/16 11:50:29;;;;;;;;;;;13.20;69.90;;;;;;5048676;28;19924;-78
2023/04/16 11:52:55;;;;;;;;;;;13.20;69.90;;;;;;5050921;28;21219;-79
2023/04/16 11:55:20;;;;;;;;;;;13.30;69.90;;;;;;5062420;28;19925;-78
2023/04/16 11:57:46;;;;;;;;;;;13.30;69.80;;;;;;5066365;28;19916;-77
2023/04/16 12:00:15;;;;;;;;;;;13.30;69.80;;;;;;5046611;28;20031;-78
2023/04/16 12:02:41;;;;;;;;;;;13.40;69.80;;;;;;5047661;28;19921;-79
2023/04/16 12:05:24;;;;;;;;;;;13.40;69.80;;;;;;5049302;28;19920;-79
2023/04/16 12:07:49;;;;;;;;;;;13.40;69.80;;;;;;5049420;28;19930;-78
2023/04/16 12:10:15;;;;;;;;;;;13.50;69.70;;;;;;5051348;28;19920;-78
2023/04/16 12:12:40;;;;;;;;;;;13.50;69.80;;;;;;5049840;28;20111;-79
2023/04/16 12:15:06;;;;;;;;;;;13.60;69.70;;;;;;5062526;28;19916;-79
2023/04/16 12:17:32;;;;;;;;;;;13.60;69.60;;;;;;5060160;28;20398;-78
2023/04/16 12:19:58;;;;;;;;;;;13.50;69.60;;;;;;5037033;28;20458;-78
2023/04/16 12:22:30;;;;;;;;;;;13.50;69.60;;;;;;5031667;28;19920;-78
2023/04/16 12:25:06;;;;;;;;;;;13.60;69.70;;;;;;5032471;28;20050;-79
2023/04/16 12:27:45;;;;;;;;;;;13.60;69.70;;;;;;5046939;28;19970;-76
2023/04/16 12:30:11;;;;;;;;;;;13.60;69.60;;;;;;5049670;28;19931;-78
2023/04/16 12:32:36;;;;;;;;;;;13.60;69.60;;;;;;5061633;28;19921;-77
2023/04/16 12:35:02;;;;;;;;;;;13.60;69.60;;;;;;5034143;28;19925;-77
2023/04/16 12:37:27;;;;;;;;;;;13.60;69.60;;;;;;5048574;28;19940;-78
2023/04/16 12:39:53;;;;;;;;;;;13.60;69.50;;;;;;5049063;28;19935;-77
2023/04/16 12:42:19;;;;;;;;;;;13.60;69.50;;;;;;5034885;28;20003;-78
2023/04/16 12:44:44;;;;;;;;;;;13.60;69.50;;;;;;5034788;28;19917;-78
2023/04/16 12:47:10;;;;;;;;;;;13.60;69.50;;;;;;5047037;28;19917;-77
2023/04/16 12:49:35;;;;;;;;;;;13.60;69.60;;;;;;5059924;28;19970;-78
2023/04/16 12:52:01;;;;;;;;;;;13.60;69.60;;;;;;5034822;28;19958;-79
2023/04/16 12:54:29;;;;;;;;;;;13.50;69.70;;;;;;5051152;28;19969;-78
2023/04/16 12:56:55;;;;;;;;;;;13.50;69.70;;;;;;5032880;28;20865;-77
2023/04/16 12:59:21;;;;;;;;;;;13.50;69.70;;;;;;5031496;28;19935;-78
2023/04/16 13:01:46;;;;;;;;;;;13.60;69.70;;;;;;5031078;28;19920;-78
2023/04/16 13:04:11;;;;;;;;;;;13.60;69.70;;;;;;5047309;28;19999;-79
2023/04/16 13:06:37;;;;;;;;;;;13.60;69.80;;;;;;5046953;28;19917;-79
2023/04/16 13:09:03;;;;;;;;;;;13.50;69.60;;;;;;5067014;28;19927;-77
2023/04/16 13:11:29;;;;;;;;;;;13.50;69.70;;;;;;5035101;28;20047;-79
2023/04/16 13:13:54;;;;;;;;;;;13.50;69.70;;;;;;5047860;28;19928;-78
2023/04/16 13:16:20;;;;;;;;;;;13.50;69.70;;;;;;5047915;28;19920;-79
2023/04/16 13:18:45;;;;;;;;;;;13.50;69.70;;;;;;5064324;28;20002;-78
2023/04/16 13:21:11;;;;;;;;;;;13.50;69.70;;;;;;5045584;28;19924;-79
2023/04/16 13:23:36;;;;;;;;;;;13.50;69.80;;;;;;5045500;28;20588;-79
2023/04/16 13:26:02;;;;;;;;;;;13.50;69.70;;;;;;5032446;28;19963;-79
2023/04/16 13:28:27;;;;;;;;;;;13.40;69.80;;;;;;5060889;28;19921;-76
2023/04/16 13:30:53;;;;;;;;;;;13.40;69.80;;;;;;5049806;28;19999;-78
2023/04/16 13:33:19;;;;;;;;;;;13.40;69.80;;;;;;5059910;28;19932;-79
2023/04/16 13:35:45;;;;;;;;;;;13.40;69.80;;;;;;5060135;28;19928;-79
2023/04/16 13:38:11;;;;;;;;;;;13.40;69.80;;;;;;5062806;28;19925;-78
2023/04/16 13:40:36;;;;;;;;;;;13.40;69.80;;;;;;5049035;28;19920;-77
2023/04/16 13:43:02;;;;;;;;;;;13.40;70.60;;;;;;5049079;28;19920;-79
2023/04/16 13:45:27;;;;;;;;;;;13.30;69.80;;;;;;5064320;28;20391;-78
2023/04/16 13:47:53;;;;;;;;;;;13.40;69.90;;;;;;5048182;28;19928;-78
2023/04/16 13:50:18;;;;;;;;;;;13.30;69.80;;;;;;5031676;28;19927;-79
2023/04/16 13:52:44;;;;;;;;;;;13.30;69.80;;;;;;5045262;28;19921;-79
2023/04/16 13:55:12;;;;;;;;;;;13.30;69.80;;;;;;5033354;28;19974;-79
2023/04/16 13:57:38;;;;;;;;;;;13.40;69.90;;;;;;5065240;28;20413;-79
2023/04/16 14:00:04;;;;;;;;;;;13.40;69.90;;;;;;5048274;28;19916;-78
2023/04/16 14:02:29;;;;;;;;;;;13.30;69.90;;;;;;5061296;28;19921;-76
2023/04/16 14:04:54;;;;;;;;;;;13.40;70.00;;;;;;5034228;28;19928;-79
2023/04/16 14:07:24;;;;;;;;;;;13.40;70.00;;;;;;5052175;28;19920;-76
2023/04/16 14:09:49;;;;;;;;;;;13.40;69.90;;;;;;5051961;28;19967;-78
2023/04/16 14:12:15;;;;;;;;;;;13.50;69.90;;;;;;5069324;28;20007;-78
2023/04/16 14:14:41;;;;;;;;;;;13.50;69.80;;;;;;5053714;28;19928;-78
2023/04/16 14:17:06;;;;;;;;;;;13.50;69.80;;;;;;5049107;28;19920;-78